< < Back
Terminal Aerodrome Forecast


Current Version              Previous Versions:   1  2  3  4  5  6  7  8  9  

Terminal Aerodrome Forecast

717
FTUS42 KMLB 252320
TAFMCO
TAF
KMCO 252320Z 2600/2624 24009KT P6SM FEW060 BKN300
     FM260900 23008KT P6SM SCT005 BKN020 OVC100
     FM261500 24015G22KT P6SM VCSH BKN035 OVC100=



Latest METAR

923
SAUS70 KWBC 261000 RRW
MTRMCO
METAR KMCO 261053Z 25007KT 10SM BKN017 OVC021 26/23 A2978 RMK AO2 SLP083
T02560233


USA.gov is the U.S. government's official web portal to all federal, state and local government web resources and services.